Grant, Nebraska
Current Conditions -  °F | °C
As of 2:15 AM on Saturday 22 Nov 2014 (Local Time) from KOGA Reporting Station
Clear Clear  
Wind Chill: 11°   Ceiling: Unl
Heat Index: 20°   Visibility: 10mi
Dew Point: 18°   Wind: 7mph
Humidity: 89%   Direction: 270°W
Pressure: 29.86"   Gusts: NA
Location:  40.84°N, 101.73°W
Report Text: KOGA 220915Z AUTO 27006KT 10SM CLR M06/M08 A2986 RMK AO2 T10651080
Loading
Personal Weather Stations






























Interactive Weather Map New forecast layout! Learn more

10-Day Weather Forecast

Advertisements
Track Severe Weather on mobile